Terminal Aerodrome Forecast
Issued by NWS

Home | Current Version | Previous Version | Text Only | Print | Product List | Glossary On
Versions: 1 2 3 4 5 6 7 8 9 10 11 12 13 14 15 16
000
FTUS43 KMPX 052340
TAFRNH
TAF
KRNH 052340Z 0600/0624 17013G20KT P6SM BKN040 BKN150
     FM060300 16012KT P6SM SCT050 BKN150
     FM060600 15012KT 5SM -SHRA OVC045
      TEMPO 0607/0611 2SM TSRA BKN015CB OVC035
     FM061100 15008KT 3SM SHRA BR VCTS BKN011CB OVC025
     FM061600 17008KT 6SM -SHRA SCT010 OVC018
     FM062100 35012G20KT P6SM SCT025 BKN040=

USA.gov is the U.S. government's official web portal to all federal, state and local government web resources and services.